Uacc Ibn Al Haitham — 9HVB9 — position and weather

sailwx.info

Track history (hours):
 
Tides and Currents Weather Stations Pressure Air Temp Water Temp Dewpoint Dewpoint Depression Visibility Wind Speed Wind Dir Waves Ship Positions

Uacc Ibn Al Haitham

Last reported at 2017-Sep-13 03:07 UTC. Time now 2017-Sep-19 13:30 UTC.
Position N 27°44' W 015°13'.

Length 228 m; draft 12.5 m.

Type: Tanker. MMSI: 249580000.

Date/timePositionNaut miles runAvg speedWind from/ knotsBaromVisibWave heightAir tempDewpointWater temp
2017-Sep-13 03:07N 27°44' W 015°13'313.2
2017-Sep-13 02:55N 27°46' W 015°11'512.7
2017-Sep-13 02:30N 27°50' W 015°08'713.3
2017-Sep-13 02:00N 27°57' W 015°05'713.6
2017-Sep-13 01:30N 28°03' W 015°02'713.5
2017-Sep-13 01:00N 28°09' W 014°60'713.2
2017-Sep-13 00:30N 28°15' W 014°57'713.5
2017-Sep-13 00:00N 28°22' W 014°55'713.5
2017-Sep-12 23:30N 28°28' W 014°52'613.3
2017-Sep-12 23:00N 28°34' W 014°49'713.4
2017-Sep-12 22:28N 28°41' W 014°46'613.6
2017-Sep-12 22:00N 28°47' W 014°43'2213.5
2017-Sep-12 20:23N 29°07' W 014°33'61112.6
2017-Sep-10 20:00N 35°58' W 005°36'9 9.7
2017-Sep-10 19:05N 36°00' W 005°26'110.0
2017-Sep-10 18:59N 36°01' W 005°25'510.2
2017-Sep-10 18:30N 36°04' W 005°20'4 7.9
2017-Sep-10 18:00N 36°07' W 005°17'  
Track history (hours):
 
Tides and Currents Weather Stations Pressure Air Temp Water Temp Dewpoint Dewpoint Depression Visibility Wind Speed Wind Dir Waves Ship Positions

Uacc Ibn Al Haitham

Last reported at 2017-Sep-13 03:07 UTC. Time now 2017-Sep-19 13:30 UTC.
Position N 27°44' W 015°13'.

Length 228 m; draft 12.5 m.

Type: Tanker. MMSI: 249580000.

Date/timePositionNaut miles runAvg speedWind from/ knotsBaromVisibWave heightAir tempDewpointWater temp
2017-Sep-13 03:07N 27°44' W 015°13'313.2
2017-Sep-13 02:55N 27°46' W 015°11'512.7
2017-Sep-13 02:30N 27°50' W 015°08'713.3
2017-Sep-13 02:00N 27°57' W 015°05'713.6
2017-Sep-13 01:30N 28°03' W 015°02'713.5
2017-Sep-13 01:00N 28°09' W 014°60'713.2
2017-Sep-13 00:30N 28°15' W 014°57'713.5
2017-Sep-13 00:00N 28°22' W 014°55'713.5
2017-Sep-12 23:30N 28°28' W 014°52'613.3
2017-Sep-12 23:00N 28°34' W 014°49'713.4
2017-Sep-12 22:28N 28°41' W 014°46'613.6
2017-Sep-12 22:00N 28°47' W 014°43'2213.5
2017-Sep-12 20:23N 29°07' W 014°33'61112.6
2017-Sep-10 20:00N 35°58' W 005°36'9 9.7
2017-Sep-10 19:05N 36°00' W 005°26'110.0
2017-Sep-10 18:59N 36°01' W 005°25'510.2
2017-Sep-10 18:30N 36°04' W 005°20'4 7.9
2017-Sep-10 18:00N 36°07' W 005°17'  

Dump ship's entire track history